createdAt,value
2023-02-14T00:01:19.411Z,103371.38
2023-02-14T00:03:47.728Z,103380.59
2023-02-14T00:06:16.180Z,103387.09
2023-02-14T00:08:44.836Z,103385.09
2023-02-14T00:11:13.713Z,103386.41
2023-02-14T00:14:00.888Z,103383.31
2023-02-14T00:16:29.463Z,103380.34
2023-02-14T00:19:06.517Z,103385.22
2023-02-14T00:21:35.971Z,103385.22
2023-02-14T00:24:03.614Z,103386.91
2023-02-14T00:26:30.541Z,103386.56
2023-02-14T00:28:58.502Z,103380.97
2023-02-14T00:31:25.891Z,103378.03
2023-02-14T00:33:54.675Z,103381.06
2023-02-14T00:36:22.533Z,103375.59
2023-02-14T00:38:49.289Z,103375.59
2023-02-14T00:41:19.695Z,103369.75
2023-02-14T00:43:52.298Z,103371.59
2023-02-14T00:46:20.361Z,103381.78
2023-02-14T00:48:49.568Z,103373.28
2023-02-14T00:51:18.788Z,103368.38
2023-02-14T00:53:49.733Z,103377.34
2023-02-14T00:56:16.745Z,103366.00
2023-02-14T00:58:44.849Z,103366.03
2023-02-14T01:01:14.525Z,103372.28
2023-02-14T01:03:41.500Z,103374.63
2023-02-14T01:06:09.657Z,103372.88
2023-02-14T01:08:38.258Z,103372.91
2023-02-14T01:11:12.821Z,103374.94
2023-02-14T01:13:39.881Z,103364.41
2023-02-14T01:16:13.301Z,103360.09
2023-02-14T01:18:40.257Z,103357.56
2023-02-14T01:21:15.790Z,103362.75
2023-02-14T01:23:44.556Z,103356.75
2023-02-14T01:26:12.017Z,103364.66
2023-02-14T01:28:38.673Z,103358.09
2023-02-14T01:31:13.001Z,103352.19
2023-02-14T01:33:42.173Z,103356.91
2023-02-14T01:36:17.965Z,103355.31
2023-02-14T01:38:45.211Z,103343.50
2023-02-14T01:41:12.298Z,103347.84
2023-02-14T01:44:02.489Z,103336.81
2023-02-14T01:46:33.636Z,103344.19
2023-02-14T01:49:04.463Z,103341.50
2023-02-14T01:51:34.891Z,103349.22
2023-02-14T01:54:03.698Z,103341.09
2023-02-14T01:56:43.536Z,103340.44
2023-02-14T01:59:12.512Z,103339.81
2023-02-14T02:01:40.726Z,103338.78
2023-02-14T02:04:10.466Z,103336.69
2023-02-14T02:06:44.405Z,103337.84
2023-02-14T02:09:14.648Z,103333.34
2023-02-14T02:11:42.081Z,103325.25
2023-02-14T02:14:14.985Z,103325.84
2023-02-14T02:17:08.278Z,103326.22
2023-02-14T02:19:54.261Z,103331.22
2023-02-14T02:22:41.671Z,103332.69
2023-02-14T02:25:28.321Z,103320.69
2023-02-14T02:27:55.053Z,103330.88
2023-02-14T02:30:44.537Z,103330.38
2023-02-14T02:33:30.184Z,103319.00
2023-02-14T02:35:57.709Z,103317.53
2023-02-14T02:38:54.564Z,103313.59
2023-02-14T02:42:00.758Z,103314.66
2023-02-14T02:44:40.534Z,103311.16
2023-02-14T02:47:19.637Z,103303.59
2023-02-14T02:50:08.270Z,103309.31
2023-02-14T02:53:05.536Z,103303.38
2023-02-14T02:55:57.702Z,103305.63
2023-02-14T02:58:26.218Z,103305.19
2023-02-14T03:00:55.344Z,103308.72
2023-02-14T03:03:44.481Z,103305.94
2023-02-14T03:06:11.229Z,103302.34
2023-02-14T03:08:38.138Z,103310.22
2023-02-14T03:11:05.976Z,103313.94
2023-02-14T03:13:36.558Z,103316.03
2023-02-14T03:16:06.285Z,103310.44
2023-02-14T03:18:42.551Z,103305.91
2023-02-14T03:21:25.302Z,103306.94
2023-02-14T03:24:01.601Z,103299.78
2023-02-14T03:26:39.502Z,103308.31
2023-02-14T03:29:10.095Z,103302.97
2023-02-14T03:31:47.619Z,103301.69
2023-02-14T03:34:21.888Z,103297.78
2023-02-14T03:36:59.236Z,103296.25
2023-02-14T03:39:38.669Z,103295.50
2023-02-14T03:42:09.383Z,103301.97
2023-02-14T03:44:38.240Z,103297.34
2023-02-14T03:47:09.263Z,103296.00
2023-02-14T03:49:38.655Z,103282.84
2023-02-14T03:52:09.909Z,103285.19
2023-02-14T03:54:37.916Z,103278.13
2023-02-14T03:57:12.679Z,103283.44
2023-02-14T03:59:40.666Z,103277.97
2023-02-14T04:02:10.372Z,103274.13
2023-02-14T04:04:43.553Z,103276.63
2023-02-14T04:07:12.219Z,103273.81
2023-02-14T04:09:38.831Z,103274.66
2023-02-14T04:12:06.289Z,103277.75
2023-02-14T04:14:34.040Z,103274.56
2023-02-14T04:17:19.476Z,103273.19
2023-02-14T04:19:48.489Z,103278.84
2023-02-14T04:22:15.801Z,103270.31
2023-02-14T04:24:43.984Z,103276.53
2023-02-14T04:27:11.427Z,103276.72
2023-02-14T04:29:41.187Z,103265.13
2023-02-14T04:32:15.660Z,103270.97
2023-02-14T04:34:42.476Z,103268.72
2023-02-14T04:37:11.074Z,103267.13
2023-02-14T04:39:38.261Z,103268.63
2023-02-14T04:42:05.761Z,103271.50
2023-02-14T04:44:34.037Z,103271.31
2023-02-14T04:47:01.227Z,103261.59
2023-02-14T04:49:29.703Z,103263.72
2023-02-14T04:51:57.016Z,103258.81
2023-02-14T04:54:25.586Z,103260.53
2023-02-14T04:56:53.033Z,103254.00
2023-02-14T04:59:22.002Z,103260.47
2023-02-14T05:01:51.518Z,103253.06
2023-02-14T05:04:18.354Z,103260.28
2023-02-14T05:06:51.363Z,103258.84
2023-02-14T05:09:21.200Z,103259.19
2023-02-14T05:11:49.225Z,103257.28
2023-02-14T05:14:17.636Z,103261.22
2023-02-14T05:16:45.407Z,103256.31
2023-02-14T05:19:13.340Z,103258.75
2023-02-14T05:21:41.296Z,103259.84
2023-02-14T05:24:08.631Z,103259.16
2023-02-14T05:26:35.945Z,103254.84
2023-02-14T05:29:03.690Z,103256.19
2023-02-14T05:31:30.766Z,103251.31
2023-02-14T05:33:57.720Z,103247.78
2023-02-14T05:36:24.919Z,103252.63
2023-02-14T05:38:52.719Z,103253.25
2023-02-14T05:41:19.711Z,103241.78
2023-02-14T05:43:46.290Z,103253.94
2023-02-14T05:46:13.170Z,103247.28
2023-02-14T05:48:41.121Z,103241.59
2023-02-14T05:51:08.805Z,103234.19
2023-02-14T05:53:36.077Z,103244.81
2023-02-14T05:56:06.472Z,103239.88
2023-02-14T05:58:35.245Z,103247.94
2023-02-14T06:01:02.388Z,103235.69
2023-02-14T06:03:30.010Z,103237.53
2023-02-14T06:05:57.074Z,103229.19
2023-02-14T06:08:24.273Z,103240.69
2023-02-14T06:10:51.107Z,103243.38
2023-02-14T06:13:17.978Z,103247.53
2023-02-14T06:15:45.949Z,103239.88
2023-02-14T06:18:12.813Z,103245.13
2023-02-14T06:20:40.420Z,103249.34
2023-02-14T06:23:07.380Z,103246.78
2023-02-14T06:25:34.124Z,103249.28
2023-02-14T06:28:02.589Z,103250.28
2023-02-14T06:30:29.768Z,103258.00
2023-02-14T06:32:58.380Z,103256.06
2023-02-14T06:35:25.360Z,103250.69
2023-02-14T06:37:52.887Z,103252.84
2023-02-14T06:40:21.665Z,103256.94
2023-02-14T06:42:48.305Z,103258.75
2023-02-14T06:45:15.299Z,103255.72
2023-02-14T06:47:42.619Z,103261.72
2023-02-14T06:50:11.852Z,103261.22
2023-02-14T06:52:38.995Z,103261.81
2023-02-14T06:55:06.557Z,103260.03
2023-02-14T06:57:34.529Z,103253.69
2023-02-14T07:00:01.969Z,103265.66
2023-02-14T07:02:33.406Z,103265.63
2023-02-14T07:05:02.360Z,103253.53
2023-02-14T07:07:31.904Z,103251.47
2023-02-14T07:09:59.827Z,103251.22
2023-02-14T07:12:26.438Z,103251.53
2023-02-14T07:14:53.781Z,103249.88
2023-02-14T07:17:20.670Z,103254.47
2023-02-14T07:19:48.928Z,103251.28
2023-02-14T07:22:15.780Z,103248.69
2023-02-14T07:24:44.340Z,103250.25
2023-02-14T07:27:11.416Z,103243.38
2023-02-14T07:29:38.101Z,103245.97
2023-02-14T07:32:05.179Z,103243.03
2023-02-14T07:34:35.837Z,103247.16
2023-02-14T07:37:03.725Z,103243.97
2023-02-14T07:39:30.565Z,103247.06
2023-02-14T07:41:57.336Z,103244.41
2023-02-14T07:44:24.325Z,103245.56
2023-02-14T07:46:51.304Z,103248.81
2023-02-14T07:49:18.152Z,103259.16
2023-02-14T07:51:45.328Z,103246.44
2023-02-14T07:54:11.961Z,103246.44
2023-02-14T07:56:38.610Z,103250.09
2023-02-14T07:59:05.444Z,103243.16
2023-02-14T08:01:32.393Z,103247.69
2023-02-14T08:03:59.933Z,103240.44
2023-02-14T08:06:27.871Z,103248.28
2023-02-14T08:08:56.484Z,103246.81
2023-02-14T08:11:42.025Z,103245.16
2023-02-14T08:14:08.902Z,103248.38
2023-02-14T08:16:35.812Z,103247.00
2023-02-14T08:19:03.018Z,103238.91
2023-02-14T08:21:31.290Z,103232.38
2023-02-14T08:23:59.161Z,103242.38
2023-02-14T08:26:27.151Z,103244.31
2023-02-14T08:28:54.633Z,103244.22
2023-02-14T08:31:34.394Z,103239.97
2023-02-14T08:34:02.493Z,103240.31
2023-02-14T08:36:29.387Z,103243.22
2023-02-14T08:38:57.547Z,103240.69
2023-02-14T08:41:24.542Z,103239.72
2023-02-14T08:43:52.773Z,103237.78
2023-02-14T08:46:19.851Z,103246.16
2023-02-14T08:48:47.348Z,103243.13
2023-02-14T08:51:16.560Z,103246.72
2023-02-14T08:53:43.953Z,103246.72
2023-02-14T08:56:11.859Z,103252.22
2023-02-14T08:58:38.947Z,103250.66
2023-02-14T09:01:16.813Z,103258.44
2023-02-14T09:03:44.389Z,103252.19
2023-02-14T09:06:12.252Z,103250.28
2023-02-14T09:08:40.006Z,103255.16
2023-02-14T09:11:10.898Z,103247.59
2023-02-14T09:13:37.831Z,103254.53
2023-02-14T09:16:07.230Z,103248.34
2023-02-14T09:18:34.401Z,103248.34
2023-02-14T09:21:01.817Z,103246.50
2023-02-14T09:23:28.581Z,103243.50
2023-02-14T09:26:02.470Z,103239.72
2023-02-14T09:28:29.749Z,103231.44
2023-02-14T09:30:57.037Z,103237.13
2023-02-14T09:33:24.497Z,103236.88
2023-02-14T09:35:52.481Z,103232.16
2023-02-14T09:38:19.661Z,103219.91
2023-02-14T09:40:47.330Z,103216.09
2023-02-14T09:43:21.439Z,103216.25
2023-02-14T09:45:51.506Z,103209.84
2023-02-14T09:48:27.197Z,103214.59
2023-02-14T09:51:05.947Z,103210.56
2023-02-14T09:53:34.799Z,103218.00
2023-02-14T09:56:10.276Z,103216.72
2023-02-14T09:58:50.029Z,103211.28
2023-02-14T10:01:20.637Z,103211.53
2023-02-14T10:04:00.052Z,103220.09
2023-02-14T10:06:45.218Z,103225.25
2023-02-14T10:09:14.976Z,103215.13
2023-02-14T10:11:45.099Z,103212.94
2023-02-14T10:14:14.483Z,103215.97
2023-02-14T10:16:49.221Z,103212.69
2023-02-14T10:19:19.471Z,103208.41
2023-02-14T10:21:52.320Z,103203.69
2023-02-14T10:24:48.339Z,103217.25
2023-02-14T10:27:18.258Z,103208.06
2023-02-14T10:29:45.654Z,103204.25
2023-02-14T10:32:19.006Z,103200.97
2023-02-14T10:34:49.910Z,103199.31
2023-02-14T10:37:22.680Z,103196.75
2023-02-14T10:39:52.400Z,103203.69
2023-02-14T10:42:18.986Z,103193.75
2023-02-14T10:44:49.522Z,103199.88
2023-02-14T10:47:19.369Z,103193.28
2023-02-14T10:49:49.847Z,103187.06
2023-02-14T10:52:20.761Z,103183.69
2023-02-14T10:54:52.948Z,103189.94
2023-02-14T10:57:25.052Z,103180.59
2023-02-14T10:59:58.583Z,103173.69
2023-02-14T11:02:31.943Z,103172.06
2023-02-14T11:04:59.165Z,103163.84
2023-02-14T11:07:25.903Z,103171.13
2023-02-14T11:09:52.561Z,103169.25
2023-02-14T11:12:33.298Z,103167.41
2023-02-14T11:15:10.145Z,103171.25
2023-02-14T11:17:37.756Z,103174.09
2023-02-14T11:20:22.692Z,103166.75
2023-02-14T11:22:50.019Z,103167.59
2023-02-14T11:25:24.831Z,103159.94
2023-02-14T11:27:54.428Z,103157.94
2023-02-14T11:30:26.584Z,103164.75
2023-02-14T11:33:01.895Z,103153.75
2023-02-14T11:35:34.663Z,103146.94
2023-02-14T11:38:05.093Z,103142.19
2023-02-14T11:40:31.698Z,103141.72
2023-02-14T11:43:13.444Z,103139.91
2023-02-14T11:45:42.705Z,103137.06
2023-02-14T11:48:10.636Z,103135.69
2023-02-14T11:50:39.100Z,103139.53
2023-02-14T11:53:11.265Z,103127.31
2023-02-14T11:55:38.348Z,103118.31
2023-02-14T11:58:06.858Z,103113.88
2023-02-14T12:00:33.925Z,103109.16
2023-02-14T12:03:03.164Z,103110.69
2023-02-14T12:05:45.432Z,103098.22
2023-02-14T12:08:13.429Z,103094.34
2023-02-14T12:10:42.422Z,103091.88
2023-02-14T12:13:09.410Z,103084.09
2023-02-14T12:15:39.723Z,103081.69
2023-02-14T12:18:09.589Z,103090.56
2023-02-14T12:20:36.448Z,103083.34
2023-02-14T12:23:10.510Z,103083.09
2023-02-14T12:25:43.386Z,103073.34
2023-02-14T12:28:16.417Z,103072.25
2023-02-14T12:30:43.486Z,103071.94
2023-02-14T12:33:18.874Z,103062.31
2023-02-14T12:35:45.684Z,103061.38
2023-02-14T12:38:27.659Z,103066.88
2023-02-14T12:41:02.376Z,103062.03
2023-02-14T12:43:32.405Z,103070.09
2023-02-14T12:46:12.982Z,103064.47
2023-02-14T12:48:50.728Z,103051.47
2023-02-14T12:51:29.620Z,103048.44
2023-02-14T12:53:56.087Z,103049.31
2023-02-14T12:56:26.267Z,103042.22
2023-02-14T12:58:56.400Z,103038.19
2023-02-14T13:01:38.367Z,103027.88
2023-02-14T13:04:15.042Z,103031.66
2023-02-14T13:06:45.931Z,103024.34
2023-02-14T13:09:15.648Z,103028.44
2023-02-14T13:11:42.435Z,103032.84
2023-02-14T13:14:32.617Z,103021.63
2023-02-14T13:17:18.157Z,103008.56
2023-02-14T13:19:48.443Z,103008.47
2023-02-14T13:22:19.070Z,103004.47
2023-02-14T13:24:47.437Z,103007.50
2023-02-14T13:27:18.289Z,103007.53
2023-02-14T13:29:50.885Z,102995.53
2023-02-14T13:32:21.534Z,102999.72
2023-02-14T13:34:49.016Z,102982.72
2023-02-14T13:37:18.005Z,102982.72
2023-02-14T13:39:48.067Z,102987.25
2023-02-14T13:42:34.572Z,102986.31
2023-02-14T13:45:02.576Z,102976.81
2023-02-14T13:47:29.273Z,102975.00
2023-02-14T13:49:59.351Z,102977.31
2023-02-14T13:52:41.985Z,102979.50
2023-02-14T13:55:10.213Z,102973.13
2023-02-14T13:57:41.243Z,102970.59
2023-02-14T14:00:20.513Z,102971.59
2023-02-14T14:02:46.929Z,102968.44
2023-02-14T14:05:43.883Z,102959.94
2023-02-14T14:08:22.710Z,102967.31
2023-02-14T14:10:53.711Z,102955.16
2023-02-14T14:13:39.487Z,102962.97
2023-02-14T14:16:24.698Z,102965.22
2023-02-14T14:18:52.583Z,102948.16
2023-02-14T14:21:28.669Z,102947.03
2023-02-14T14:24:22.242Z,102946.63
2023-02-14T14:26:58.044Z,102959.03
2023-02-14T14:29:27.853Z,102952.84
2023-02-14T14:31:56.520Z,102950.34
2023-02-14T14:34:27.770Z,102947.56
2023-02-14T14:37:04.386Z,102950.63
2023-02-14T14:39:32.479Z,102951.94
2023-02-14T14:42:06.982Z,102946.00
2023-02-14T14:44:37.465Z,102945.16
2023-02-14T14:47:04.197Z,102941.16
2023-02-14T14:49:32.274Z,102935.94
2023-02-14T14:51:58.978Z,102938.75
2023-02-14T14:54:27.496Z,102927.22
2023-02-14T14:57:01.548Z,102928.81
2023-02-14T14:59:35.399Z,102925.94
2023-02-14T15:02:02.423Z,102918.81
2023-02-14T15:04:33.676Z,102922.13
2023-02-14T15:07:19.324Z,102920.31
2023-02-14T15:09:46.188Z,102924.06
2023-02-14T15:12:34.037Z,102920.00
2023-02-14T15:15:00.641Z,102920.91
2023-02-14T15:17:29.490Z,102916.16
2023-02-14T15:20:02.579Z,102916.81
2023-02-14T15:22:34.042Z,102918.47
2023-02-14T15:25:00.602Z,102913.34
2023-02-14T15:27:29.102Z,102908.16
2023-02-14T15:30:00.464Z,102905.34
2023-02-14T15:32:30.155Z,102900.72
2023-02-14T15:34:57.037Z,102897.66
2023-02-14T15:37:24.537Z,102906.22
2023-02-14T15:39:58.198Z,102899.97
2023-02-14T15:42:29.652Z,102902.84
2023-02-14T15:45:15.191Z,102899.50
2023-02-14T15:47:43.971Z,102896.56
2023-02-14T15:50:17.615Z,102892.19
2023-02-14T15:52:45.929Z,102888.78
2023-02-14T15:55:19.149Z,102875.56
2023-02-14T15:57:48.726Z,102882.75
2023-02-14T16:00:17.747Z,102885.44
2023-02-14T16:02:57.083Z,102887.91
2023-02-14T16:05:25.140Z,102892.78
2023-02-14T16:08:05.586Z,102889.75
2023-02-14T16:10:38.232Z,102881.72
2023-02-14T16:13:06.762Z,102884.94
2023-02-14T16:15:35.789Z,102877.41
2023-02-14T16:18:08.172Z,102877.91
2023-02-14T16:20:38.689Z,102882.84
2023-02-14T16:23:22.561Z,102890.59
2023-02-14T16:25:49.748Z,102871.41
2023-02-14T16:28:17.720Z,102879.00
2023-02-14T16:31:00.022Z,102878.00
2023-02-14T16:33:28.180Z,102888.81
2023-02-14T16:36:01.176Z,102884.88
2023-02-14T16:38:27.754Z,102876.16
2023-02-14T16:40:54.719Z,102873.63
2023-02-14T16:43:22.815Z,102885.44
2023-02-14T16:45:50.194Z,102878.31
2023-02-14T16:48:19.785Z,102878.28
2023-02-14T16:50:46.793Z,102879.75
2023-02-14T16:53:31.877Z,102866.63
2023-02-14T16:55:59.060Z,102865.78
2023-02-14T16:58:29.253Z,102868.59
2023-02-14T17:00:58.583Z,102869.69
2023-02-14T17:03:25.694Z,102870.63
2023-02-14T17:05:54.792Z,102871.91
2023-02-14T17:08:21.908Z,102875.25
2023-02-14T17:10:49.549Z,102881.75
2023-02-14T17:13:19.859Z,102879.94
2023-02-14T17:15:46.495Z,102882.41
2023-02-14T17:18:15.892Z,102881.09
2023-02-14T17:20:42.873Z,102876.63
2023-02-14T17:23:12.540Z,102882.69
2023-02-14T17:25:39.854Z,102884.03
2023-02-14T17:28:07.589Z,102879.31
2023-02-14T17:30:34.389Z,102875.91
2023-02-14T17:33:02.193Z,102882.91
2023-02-14T17:35:30.749Z,102880.66
2023-02-14T17:37:58.772Z,102888.75
2023-02-14T17:40:25.820Z,102884.66
2023-02-14T17:42:53.465Z,102883.03
2023-02-14T17:45:20.652Z,102882.78
2023-02-14T17:47:47.843Z,102881.81
2023-02-14T17:50:16.021Z,102881.56
2023-02-14T17:52:43.150Z,102877.31
2023-02-14T17:55:10.383Z,102877.19
2023-02-14T17:57:41.227Z,102866.25
2023-02-14T18:00:11.380Z,102873.78
2023-02-14T18:02:39.101Z,102878.00
2023-02-14T18:05:07.709Z,102872.25
2023-02-14T18:07:35.927Z,102869.66
2023-02-14T18:10:04.529Z,102871.53
2023-02-14T18:12:31.474Z,102863.78
2023-02-14T18:15:00.896Z,102860.03
2023-02-14T18:17:28.387Z,102851.97
2023-02-14T18:19:56.788Z,102852.53
2023-02-14T18:22:23.482Z,102854.38
2023-02-14T18:24:50.083Z,102846.06
2023-02-14T18:27:16.603Z,102849.31
2023-02-14T18:29:43.217Z,102840.81
2023-02-14T18:32:10.329Z,102849.09
2023-02-14T18:34:37.720Z,102844.53
2023-02-14T18:37:05.704Z,102838.97
2023-02-14T18:39:32.880Z,102839.41
2023-02-14T18:42:01.066Z,102836.91
2023-02-14T18:44:28.657Z,102842.69
2023-02-14T18:46:55.486Z,102839.41
2023-02-14T18:49:22.112Z,102838.16
2023-02-14T18:51:49.753Z,102833.78
2023-02-14T18:54:17.760Z,102831.00
2023-02-14T18:56:44.679Z,102833.28
2023-02-14T18:59:13.327Z,102834.50
2023-02-14T19:01:42.002Z,102829.38
2023-02-14T19:04:09.195Z,102825.91
2023-02-14T19:06:36.213Z,102816.47
2023-02-14T19:09:04.052Z,102815.47
2023-02-14T19:11:31.649Z,102821.06
2023-02-14T19:14:00.753Z,102810.28
2023-02-14T19:16:28.611Z,102805.88
2023-02-14T19:18:55.486Z,102816.81
2023-02-14T19:21:24.685Z,102819.34
2023-02-14T19:23:53.029Z,102813.34
2023-02-14T19:26:21.015Z,102814.78
2023-02-14T19:28:48.591Z,102815.25
2023-02-14T19:31:17.084Z,102814.44
2023-02-14T19:33:44.486Z,102818.94
2023-02-14T19:36:13.106Z,102813.09
2023-02-14T19:38:40.788Z,102815.88
2023-02-14T19:41:14.388Z,102818.41
2023-02-14T19:43:41.702Z,102830.00
2023-02-14T19:46:08.719Z,102826.22
2023-02-14T19:48:35.263Z,102820.97
2023-02-14T19:51:02.002Z,102822.06
2023-02-14T19:53:28.751Z,102816.06
2023-02-14T19:55:55.525Z,102817.53
2023-02-14T19:58:22.464Z,102817.78
2023-02-14T20:01:00.066Z,102810.28
2023-02-14T20:03:26.981Z,102809.63
2023-02-14T20:05:55.521Z,102808.69
2023-02-14T20:08:22.491Z,102806.34
2023-02-14T20:10:49.112Z,102802.72
2023-02-14T20:13:16.153Z,102802.25
2023-02-14T20:15:45.263Z,102803.84
2023-02-14T20:18:12.264Z,102801.09
2023-02-14T20:20:59.430Z,102801.38
2023-02-14T20:23:26.514Z,102795.09
2023-02-14T20:25:53.712Z,102794.53
2023-02-14T20:28:25.586Z,102801.00
2023-02-14T20:30:52.431Z,102796.44
2023-02-14T20:33:20.869Z,102796.72
2023-02-14T20:36:12.578Z,102791.22
2023-02-14T20:38:40.495Z,102793.25
2023-02-14T20:41:10.849Z,102784.53
2023-02-14T20:43:38.757Z,102781.13
2023-02-14T20:46:08.144Z,102782.53
2023-02-14T20:48:35.492Z,102786.66
2023-02-14T20:51:23.643Z,102776.47
2023-02-14T20:53:50.625Z,102784.13
2023-02-14T20:56:20.512Z,102775.44
2023-02-14T20:58:47.673Z,102778.00
2023-02-14T21:01:21.300Z,102772.66
2023-02-14T21:03:52.223Z,102772.84
2023-02-14T21:06:20.925Z,102780.97
2023-02-14T21:08:53.645Z,102703.41
2023-02-14T21:11:22.451Z,102768.88
2023-02-14T21:13:55.157Z,102756.41
2023-02-14T21:16:22.123Z,102762.47
2023-02-14T21:18:52.493Z,102755.59
2023-02-14T21:21:22.728Z,102751.00
2023-02-14T21:23:51.569Z,102743.16
2023-02-14T21:26:20.088Z,102739.31
2023-02-14T21:28:49.616Z,102736.34
2023-02-14T21:31:18.345Z,102732.75
2023-02-14T21:33:45.230Z,102745.59
2023-02-14T21:36:13.219Z,102742.13
2023-02-14T21:38:41.627Z,102744.84
2023-02-14T21:41:09.759Z,102741.69
2023-02-14T21:43:37.766Z,102745.06
2023-02-14T21:46:08.288Z,102743.38
2023-02-14T21:48:53.751Z,102734.78
2023-02-14T21:51:20.340Z,102734.47
2023-02-14T21:53:48.718Z,102738.28
2023-02-14T21:56:20.199Z,102733.41
2023-02-14T21:58:47.815Z,102740.63
2023-02-14T22:01:16.014Z,102740.19
2023-02-14T22:03:44.276Z,102742.09
2023-02-14T22:06:11.354Z,102737.75
2023-02-14T22:08:38.370Z,102742.41
2023-02-14T22:11:16.683Z,102735.06
2023-02-14T22:13:45.223Z,102739.25
2023-02-14T22:16:13.818Z,102737.00
2023-02-14T22:18:42.490Z,102731.69
2023-02-14T22:21:12.475Z,102735.78
2023-02-14T22:23:39.650Z,102727.81
2023-02-14T22:26:14.153Z,102733.81
2023-02-14T22:28:41.761Z,102731.34
2023-02-14T22:31:09.716Z,102723.03
2023-02-14T22:33:37.876Z,102719.03
2023-02-14T22:36:06.286Z,102716.28
2023-02-14T22:38:33.746Z,102713.19
2023-02-14T22:41:07.858Z,102711.84
2023-02-14T22:43:35.313Z,102704.66
2023-02-14T22:46:04.114Z,102705.00
2023-02-14T22:48:33.076Z,102711.19
2023-02-14T22:51:15.730Z,102707.59
2023-02-14T22:53:42.783Z,102709.38
2023-02-14T22:56:11.440Z,102708.19
2023-02-14T22:58:39.829Z,102709.25
2023-02-14T23:01:13.389Z,102712.63
2023-02-14T23:03:40.225Z,102710.97
2023-02-14T23:06:07.077Z,102720.03
2023-02-14T23:08:34.508Z,102715.88
2023-02-14T23:11:11.359Z,102699.22
2023-02-14T23:13:57.119Z,102701.13
2023-02-14T23:16:42.537Z,102697.34
2023-02-14T23:19:47.862Z,102697.88
2023-02-14T23:22:14.441Z,102690.13
2023-02-14T23:24:41.307Z,102694.38
2023-02-14T23:27:10.940Z,102693.31
2023-02-14T23:29:41.208Z,102677.09
2023-02-14T23:32:09.358Z,102681.13
2023-02-14T23:34:37.377Z,102676.09
2023-02-14T23:37:04.357Z,102676.84
2023-02-14T23:39:35.856Z,102677.41
2023-02-14T23:42:04.743Z,102672.72
2023-02-14T23:44:34.264Z,102669.69
2023-02-14T23:47:03.369Z,102668.41
2023-02-14T23:49:30.815Z,102670.22
2023-02-14T23:51:57.810Z,102669.03
2023-02-14T23:54:25.341Z,102669.25
2023-02-14T23:56:55.136Z,102659.22
2023-02-14T23:59:22.170Z,102661.78
